sensor_id;sensor_type;location;lat;lon;timestamp;P1;P2;P0
47741;PMS5003;33504;52.066;6.096;2023-09-18T00:01:58;36;36;
47741;PMS5003;33504;52.066;6.096;2023-09-18T00:04:25;32;31;
47741;PMS5003;33504;52.066;6.096;2023-09-18T00:06:53;20;20;
47741;PMS5003;33504;52.066;6.096;2023-09-18T00:09:19;31;31;
47741;PMS5003;33504;52.066;6.096;2023-09-18T00:11:46;38;38;
47741;PMS5003;33504;52.066;6.096;2023-09-18T00:14:14;32;31;
47741;PMS5003;33504;52.066;6.096;2023-09-18T00:16:40;37;37;
47741;PMS5003;33504;52.066;6.096;2023-09-18T00:19:07;38;37;
47741;PMS5003;33504;52.066;6.096;2023-09-18T00:21:34;37;35;
47741;PMS5003;33504;52.066;6.096;2023-09-18T00:24:02;25;24;
47741;PMS5003;33504;52.066;6.096;2023-09-18T00:26:29;29;28;
47741;PMS5003;33504;52.066;6.096;2023-09-18T00:28:56;31;30;
47741;PMS5003;33504;52.066;6.096;2023-09-18T00:31:23;23;22;
47741;PMS5003;33504;52.066;6.096;2023-09-18T00:33:51;29;27;
47741;PMS5003;33504;52.066;6.096;2023-09-18T00:36:17;33;33;
47741;PMS5003;33504;52.066;6.096;2023-09-18T00:38:44;29;27;
47741;PMS5003;33504;52.066;6.096;2023-09-18T00:41:11;40;39;
47741;PMS5003;33504;52.066;6.096;2023-09-18T00:43:38;41;41;
47741;PMS5003;33504;52.066;6.096;2023-09-18T00:46:05;28;28;
47741;PMS5003;33504;52.066;6.096;2023-09-18T00:48:34;23;23;
47741;PMS5003;33504;52.066;6.096;2023-09-18T00:51:02;28;23;
47741;PMS5003;33504;52.066;6.096;2023-09-18T00:53:30;34;34;
47741;PMS5003;33504;52.066;6.096;2023-09-18T00:55:57;30;28;
47741;PMS5003;33504;52.066;6.096;2023-09-18T00:58:26;31;29;
47741;PMS5003;33504;52.066;6.096;2023-09-18T01:00:54;32;32;
47741;PMS5003;33504;52.066;6.096;2023-09-18T01:03:22;38;37;
47741;PMS5003;33504;52.066;6.096;2023-09-18T01:05:50;31;31;
47741;PMS5003;33504;52.066;6.096;2023-09-18T01:08:17;28;26;
47741;PMS5003;33504;52.066;6.096;2023-09-18T01:10:47;28;27;
47741;PMS5003;33504;52.066;6.096;2023-09-18T01:13:21;33;32;
47741;PMS5003;33504;52.066;6.096;2023-09-18T01:15:54;33;32;
47741;PMS5003;33504;52.066;6.096;2023-09-18T01:18:28;36;35;
47741;PMS5003;33504;52.066;6.096;2023-09-18T01:20:56;37;36;
47741;PMS5003;33504;52.066;6.096;2023-09-18T01:23:23;34;34;
47741;PMS5003;33504;52.066;6.096;2023-09-18T01:25:50;24;24;
47741;PMS5003;33504;52.066;6.096;2023-09-18T01:28:17;35;35;
47741;PMS5003;33504;52.066;6.096;2023-09-18T01:30:44;27;26;
47741;PMS5003;33504;52.066;6.096;2023-09-18T01:33:11;28;28;
47741;PMS5003;33504;52.066;6.096;2023-09-18T01:35:39;27;26;
47741;PMS5003;33504;52.066;6.096;2023-09-18T01:38:07;36;36;
47741;PMS5003;33504;52.066;6.096;2023-09-18T01:40:34;31;31;
47741;PMS5003;33504;52.066;6.096;2023-09-18T01:43:02;28;28;
47741;PMS5003;33504;52.066;6.096;2023-09-18T01:45:29;29;28;
47741;PMS5003;33504;52.066;6.096;2023-09-18T01:47:56;33;33;
47741;PMS5003;33504;52.066;6.096;2023-09-18T01:50:23;30;29;
47741;PMS5003;33504;52.066;6.096;2023-09-18T01:52:51;31;30;
47741;PMS5003;33504;52.066;6.096;2023-09-18T01:55:18;26;25;
47741;PMS5003;33504;52.066;6.096;2023-09-18T01:57:45;28;27;
47741;PMS5003;33504;52.066;6.096;2023-09-18T02:00:12;27;27;
47741;PMS5003;33504;52.066;6.096;2023-09-18T02:02:40;33;32;
47741;PMS5003;33504;52.066;6.096;2023-09-18T02:05:07;40;38;
47741;PMS5003;33504;52.066;6.096;2023-09-18T02:07:35;27;27;
47741;PMS5003;33504;52.066;6.096;2023-09-18T02:10:02;31;30;
47741;PMS5003;33504;52.066;6.096;2023-09-18T02:12:30;31;31;
47741;PMS5003;33504;52.066;6.096;2023-09-18T02:14:57;29;28;
47741;PMS5003;33504;52.066;6.096;2023-09-18T02:17:24;30;28;
47741;PMS5003;33504;52.066;6.096;2023-09-18T02:19:51;28;27;
47741;PMS5003;33504;52.066;6.096;2023-09-18T02:22:18;30;29;
47741;PMS5003;33504;52.066;6.096;2023-09-18T02:24:45;31;31;
47741;PMS5003;33504;52.066;6.096;2023-09-18T02:27:12;28;26;
47741;PMS5003;33504;52.066;6.096;2023-09-18T02:29:39;29;28;
47741;PMS5003;33504;52.066;6.096;2023-09-18T02:32:06;32;30;
47741;PMS5003;33504;52.066;6.096;2023-09-18T02:34:33;31;30;
47741;PMS5003;33504;52.066;6.096;2023-09-18T02:37:00;26;25;
47741;PMS5003;33504;52.066;6.096;2023-09-18T02:39:26;25;24;
47741;PMS5003;33504;52.066;6.096;2023-09-18T02:41:53;33;31;
47741;PMS5003;33504;52.066;6.096;2023-09-18T02:44:20;28;26;
47741;PMS5003;33504;52.066;6.096;2023-09-18T02:46:47;25;24;
47741;PMS5003;33504;52.066;6.096;2023-09-18T02:49:14;21;21;
47741;PMS5003;33504;52.066;6.096;2023-09-18T02:51:40;31;29;
47741;PMS5003;33504;52.066;6.096;2023-09-18T02:54:07;27;26;
47741;PMS5003;33504;52.066;6.096;2023-09-18T02:56:35;35;32;
47741;PMS5003;33504;52.066;6.096;2023-09-18T02:59:02;35;33;
47741;PMS5003;33504;52.066;6.096;2023-09-18T03:01:29;29;28;
47741;PMS5003;33504;52.066;6.096;2023-09-18T03:03:56;24;22;
47741;PMS5003;33504;52.066;6.096;2023-09-18T03:06:22;33;33;
47741;PMS5003;33504;52.066;6.096;2023-09-18T03:08:49;26;26;
47741;PMS5003;33504;52.066;6.096;2023-09-18T03:11:17;24;23;
47741;PMS5003;33504;52.066;6.096;2023-09-18T03:13:44;29;29;
47741;PMS5003;33504;52.066;6.096;2023-09-18T03:16:13;29;27;
47741;PMS5003;33504;52.066;6.096;2023-09-18T03:18:40;29;28;
47741;PMS5003;33504;52.066;6.096;2023-09-18T03:21:07;28;27;
47741;PMS5003;33504;52.066;6.096;2023-09-18T03:23:34;25;24;
47741;PMS5003;33504;52.066;6.096;2023-09-18T03:26:01;38;37;
47741;PMS5003;33504;52.066;6.096;2023-09-18T03:28:27;34;34;
47741;PMS5003;33504;52.066;6.096;2023-09-18T03:30:55;26;25;
47741;PMS5003;33504;52.066;6.096;2023-09-18T03:33:21;27;24;
47741;PMS5003;33504;52.066;6.096;2023-09-18T03:35:49;25;24;
47741;PMS5003;33504;52.066;6.096;2023-09-18T03:38:17;23;23;
47741;PMS5003;33504;52.066;6.096;2023-09-18T03:40:44;27;27;
47741;PMS5003;33504;52.066;6.096;2023-09-18T03:43:12;25;25;
47741;PMS5003;33504;52.066;6.096;2023-09-18T03:45:39;31;30;
47741;PMS5003;33504;52.066;6.096;2023-09-18T03:48:06;33;32;
47741;PMS5003;33504;52.066;6.096;2023-09-18T03:50:34;24;24;
47741;PMS5003;33504;52.066;6.096;2023-09-18T03:53:01;32;31;
47741;PMS5003;33504;52.066;6.096;2023-09-18T03:55:28;30;29;
47741;PMS5003;33504;52.066;6.096;2023-09-18T03:57:55;25;25;
47741;PMS5003;33504;52.066;6.096;2023-09-18T04:00:22;37;36;
47741;PMS5003;33504;52.066;6.096;2023-09-18T04:02:49;23;23;
47741;PMS5003;33504;52.066;6.096;2023-09-18T04:05:16;29;29;
47741;PMS5003;33504;52.066;6.096;2023-09-18T04:07:43;35;34;
47741;PMS5003;33504;52.066;6.096;2023-09-18T04:10:10;29;28;
47741;PMS5003;33504;52.066;6.096;2023-09-18T04:12:38;25;25;
47741;PMS5003;33504;52.066;6.096;2023-09-18T04:15:05;27;26;
47741;PMS5003;33504;52.066;6.096;2023-09-18T04:17:33;29;29;
47741;PMS5003;33504;52.066;6.096;2023-09-18T04:20:00;35;33;
47741;PMS5003;33504;52.066;6.096;2023-09-18T04:22:27;33;30;
47741;PMS5003;33504;52.066;6.096;2023-09-18T04:24:54;34;33;
47741;PMS5003;33504;52.066;6.096;2023-09-18T04:27:22;32;32;
47741;PMS5003;33504;52.066;6.096;2023-09-18T04:29:48;31;30;
47741;PMS5003;33504;52.066;6.096;2023-09-18T04:32:15;33;31;
47741;PMS5003;33504;52.066;6.096;2023-09-18T04:34:42;35;32;
47741;PMS5003;33504;52.066;6.096;2023-09-18T04:37:09;28;26;
47741;PMS5003;33504;52.066;6.096;2023-09-18T04:39:36;29;29;
47741;PMS5003;33504;52.066;6.096;2023-09-18T04:42:04;29;27;
47741;PMS5003;33504;52.066;6.096;2023-09-18T04:44:31;27;26;
47741;PMS5003;33504;52.066;6.096;2023-09-18T04:46:58;24;23;
47741;PMS5003;33504;52.066;6.096;2023-09-18T04:49:25;25;23;
47741;PMS5003;33504;52.066;6.096;2023-09-18T04:51:52;25;24;
47741;PMS5003;33504;52.066;6.096;2023-09-18T04:54:19;26;24;
47741;PMS5003;33504;52.066;6.096;2023-09-18T04:56:46;26;26;
47741;PMS5003;33504;52.066;6.096;2023-09-18T04:59:14;30;30;
47741;PMS5003;33504;52.066;6.096;2023-09-18T05:01:41;30;28;
47741;PMS5003;33504;52.066;6.096;2023-09-18T05:04:08;28;27;
47741;PMS5003;33504;52.066;6.096;2023-09-18T05:06:35;26;26;
47741;PMS5003;33504;52.066;6.096;2023-09-18T05:09:02;34;31;
47741;PMS5003;33504;52.066;6.096;2023-09-18T05:11:29;27;26;
47741;PMS5003;33504;52.066;6.096;2023-09-18T05:13:56;28;27;
47741;PMS5003;33504;52.066;6.096;2023-09-18T05:16:23;25;24;
47741;PMS5003;33504;52.066;6.096;2023-09-18T05:18:50;25;25;
47741;PMS5003;33504;52.066;6.096;2023-09-18T05:21:17;25;24;
47741;PMS5003;33504;52.066;6.096;2023-09-18T05:23:44;28;27;
47741;PMS5003;33504;52.066;6.096;2023-09-18T05:26:11;28;24;
47741;PMS5003;33504;52.066;6.096;2023-09-18T05:28:39;24;22;
47741;PMS5003;33504;52.066;6.096;2023-09-18T05:31:06;25;24;
47741;PMS5003;33504;52.066;6.096;2023-09-18T05:33:33;20;19;
47741;PMS5003;33504;52.066;6.096;2023-09-18T05:35:59;20;19;
47741;PMS5003;33504;52.066;6.096;2023-09-18T05:38:27;23;23;
47741;PMS5003;33504;52.066;6.096;2023-09-18T05:40:54;21;21;
47741;PMS5003;33504;52.066;6.096;2023-09-18T05:43:21;26;25;
47741;PMS5003;33504;52.066;6.096;2023-09-18T05:45:48;24;22;
47741;PMS5003;33504;52.066;6.096;2023-09-18T05:48:15;21;21;
47741;PMS5003;33504;52.066;6.096;2023-09-18T05:50:42;20;20;
47741;PMS5003;33504;52.066;6.096;2023-09-18T05:53:09;20;19;
47741;PMS5003;33504;52.066;6.096;2023-09-18T05:55:37;23;22;
47741;PMS5003;33504;52.066;6.096;2023-09-18T05:58:04;26;26;
47741;PMS5003;33504;52.066;6.096;2023-09-18T06:00:31;22;21;
47741;PMS5003;33504;52.066;6.096;2023-09-18T06:02:57;22;21;
47741;PMS5003;33504;52.066;6.096;2023-09-18T06:05:25;29;27;
47741;PMS5003;33504;52.066;6.096;2023-09-18T06:07:52;23;22;
47741;PMS5003;33504;52.066;6.096;2023-09-18T06:10:19;24;23;
47741;PMS5003;33504;52.066;6.096;2023-09-18T06:12:46;25;23;
47741;PMS5003;33504;52.066;6.096;2023-09-18T06:15:13;26;24;
47741;PMS5003;33504;52.066;6.096;2023-09-18T06:17:43;21;20;
47741;PMS5003;33504;52.066;6.096;2023-09-18T06:20:11;21;20;
47741;PMS5003;33504;52.066;6.096;2023-09-18T06:22:38;20;20;
47741;PMS5003;33504;52.066;6.096;2023-09-18T06:25:06;25;24;
47741;PMS5003;33504;52.066;6.096;2023-09-18T06:27:34;24;22;
47741;PMS5003;33504;52.066;6.096;2023-09-18T06:30:02;24;24;
47741;PMS5003;33504;52.066;6.096;2023-09-18T06:32:29;24;21;
47741;PMS5003;33504;52.066;6.096;2023-09-18T06:34:56;23;23;
47741;PMS5003;33504;52.066;6.096;2023-09-18T06:37:24;22;22;
47741;PMS5003;33504;52.066;6.096;2023-09-18T06:39:51;21;20;
47741;PMS5003;33504;52.066;6.096;2023-09-18T06:42:18;21;21;
47741;PMS5003;33504;52.066;6.096;2023-09-18T06:44:45;17;17;
47741;PMS5003;33504;52.066;6.096;2023-09-18T06:47:12;20;20;
47741;PMS5003;33504;52.066;6.096;2023-09-18T06:49:40;21;19;
47741;PMS5003;33504;52.066;6.096;2023-09-18T06:52:07;24;24;
47741;PMS5003;33504;52.066;6.096;2023-09-18T06:54:34;22;22;
47741;PMS5003;33504;52.066;6.096;2023-09-18T06:57:02;21;21;
47741;PMS5003;33504;52.066;6.096;2023-09-18T06:59:29;21;20;
47741;PMS5003;33504;52.066;6.096;2023-09-18T07:01:56;26;26;
47741;PMS5003;33504;52.066;6.096;2023-09-18T07:04:23;20;20;
47741;PMS5003;33504;52.066;6.096;2023-09-18T07:06:50;23;22;
47741;PMS5003;33504;52.066;6.096;2023-09-18T07:09:17;28;25;
47741;PMS5003;33504;52.066;6.096;2023-09-18T07:11:44;18;17;
47741;PMS5003;33504;52.066;6.096;2023-09-18T07:14:11;21;19;
47741;PMS5003;33504;52.066;6.096;2023-09-18T07:16:38;25;24;
47741;PMS5003;33504;52.066;6.096;2023-09-18T07:19:05;19;19;
47741;PMS5003;33504;52.066;6.096;2023-09-18T07:21:32;22;21;
47741;PMS5003;33504;52.066;6.096;2023-09-18T07:23:59;16;15;
47741;PMS5003;33504;52.066;6.096;2023-09-18T07:26:26;16;14;
47741;PMS5003;33504;52.066;6.096;2023-09-18T07:28:52;16;14;
47741;PMS5003;33504;52.066;6.096;2023-09-18T07:31:19;14;13;
47741;PMS5003;33504;52.066;6.096;2023-09-18T07:33:47;13;13;
47741;PMS5003;33504;52.066;6.096;2023-09-18T07:36:14;13;10;
47741;PMS5003;33504;52.066;6.096;2023-09-18T07:38:41;14;13;
47741;PMS5003;33504;52.066;6.096;2023-09-18T07:41:08;11;10;
47741;PMS5003;33504;52.066;6.096;2023-09-18T07:43:35;16;16;
47741;PMS5003;33504;52.066;6.096;2023-09-18T07:46:03;11;10;
47741;PMS5003;33504;52.066;6.096;2023-09-18T07:48:30;19;18;
47741;PMS5003;33504;52.066;6.096;2023-09-18T07:50:57;17;16;
47741;PMS5003;33504;52.066;6.096;2023-09-18T07:53:24;14;14;
47741;PMS5003;33504;52.066;6.096;2023-09-18T07:55:55;8;8;
47741;PMS5003;33504;52.066;6.096;2023-09-18T07:58:23;10;10;
47741;PMS5003;33504;52.066;6.096;2023-09-18T08:00:50;9;9;
47741;PMS5003;33504;52.066;6.096;2023-09-18T08:03:17;10;8;
47741;PMS5003;33504;52.066;6.096;2023-09-18T08:05:45;9;9;
47741;PMS5003;33504;52.066;6.096;2023-09-18T08:08:12;8;8;
47741;PMS5003;33504;52.066;6.096;2023-09-18T08:10:40;7;7;
47741;PMS5003;33504;52.066;6.096;2023-09-18T08:13:07;8;7;
47741;PMS5003;33504;52.066;6.096;2023-09-18T08:15:34;6;6;
47741;PMS5003;33504;52.066;6.096;2023-09-18T08:18:02;6;6;
47741;PMS5003;33504;52.066;6.096;2023-09-18T08:20:29;6;5;
47741;PMS5003;33504;52.066;6.096;2023-09-18T08:22:57;9;8;
47741;PMS5003;33504;52.066;6.096;2023-09-18T08:25:24;6;6;
47741;PMS5003;33504;52.066;6.096;2023-09-18T08:27:51;7;6;
47741;PMS5003;33504;52.066;6.096;2023-09-18T08:30:19;7;7;
47741;PMS5003;33504;52.066;6.096;2023-09-18T08:32:46;8;8;
47741;PMS5003;33504;52.066;6.096;2023-09-18T08:35:13;7;7;
47741;PMS5003;33504;52.066;6.096;2023-09-18T08:37:41;5;4;
47741;PMS5003;33504;52.066;6.096;2023-09-18T08:40:09;8;7;
47741;PMS5003;33504;52.066;6.096;2023-09-18T08:42:38;7;7;
47741;PMS5003;33504;52.066;6.096;2023-09-18T08:45:07;4;4;
47741;PMS5003;33504;52.066;6.096;2023-09-18T08:47:36;8;8;
47741;PMS5003;33504;52.066;6.096;2023-09-18T08:50:05;6;6;
47741;PMS5003;33504;52.066;6.096;2023-09-18T08:52:34;8;8;
47741;PMS5003;33504;52.066;6.096;2023-09-18T08:55:03;5;5;
47741;PMS5003;33504;52.066;6.096;2023-09-18T08:57:31;6;6;
47741;PMS5003;33504;52.066;6.096;2023-09-18T09:00:00;4;4;
47741;PMS5003;33504;52.066;6.096;2023-09-18T09:02:27;5;5;
47741;PMS5003;33504;52.066;6.096;2023-09-18T09:04:54;4;4;
47741;PMS5003;33504;52.066;6.096;2023-09-18T09:07:21;6;5;
47741;PMS5003;33504;52.066;6.096;2023-09-18T09:09:48;4;4;
47741;PMS5003;33504;52.066;6.096;2023-09-18T09:12:16;6;6;
47741;PMS5003;33504;52.066;6.096;2023-09-18T09:15:10;3;2;
47741;PMS5003;33504;52.066;6.096;2023-09-18T09:17:37;5;5;
47741;PMS5003;33504;52.066;6.096;2023-09-18T09:20:08;5;5;
47741;PMS5003;33504;52.066;6.096;2023-09-18T09:22:35;4;4;
47741;PMS5003;33504;52.066;6.096;2023-09-18T09:25:03;4;4;
47741;PMS5003;33504;52.066;6.096;2023-09-18T09:27:41;4;4;
47741;PMS5003;33504;52.066;6.096;2023-09-18T09:30:09;4;3;
47741;PMS5003;33504;52.066;6.096;2023-09-18T09:32:36;5;5;
47741;PMS5003;33504;52.066;6.096;2023-09-18T09:35:03;4;4;
47741;PMS5003;33504;52.066;6.096;2023-09-18T09:37:31;4;4;
47741;PMS5003;33504;52.066;6.096;2023-09-18T09:40:02;4;3;
47741;PMS5003;33504;52.066;6.096;2023-09-18T09:42:31;6;5;
47741;PMS5003;33504;52.066;6.096;2023-09-18T09:45:10;11;11;
47741;PMS5003;33504;52.066;6.096;2023-09-18T09:47:38;11;11;
47741;PMS5003;33504;52.066;6.096;2023-09-18T09:50:06;5;4;
47741;PMS5003;33504;52.066;6.096;2023-09-18T09:52:33;4;4;
47741;PMS5003;33504;52.066;6.096;2023-09-18T09:55:01;5;4;
47741;PMS5003;33504;52.066;6.096;2023-09-18T09:57:28;4;4;
47741;PMS5003;33504;52.066;6.096;2023-09-18T10:00:02;5;4;
47741;PMS5003;33504;52.066;6.096;2023-09-18T10:02:29;5;5;
47741;PMS5003;33504;52.066;6.096;2023-09-18T10:04:59;4;3;
47741;PMS5003;33504;52.066;6.096;2023-09-18T10:07:27;4;4;
47741;PMS5003;33504;52.066;6.096;2023-09-18T10:09:55;2;2;
47741;PMS5003;33504;52.066;6.096;2023-09-18T10:12:24;3;3;
47741;PMS5003;33504;52.066;6.096;2023-09-18T10:14:55;4;4;
47741;PMS5003;33504;52.066;6.096;2023-09-18T10:17:24;4;3;
47741;PMS5003;33504;52.066;6.096;2023-09-18T10:19:54;6;6;
47741;PMS5003;33504;52.066;6.096;2023-09-18T10:22:30;3;3;
47741;PMS5003;33504;52.066;6.096;2023-09-18T10:24:59;3;2;
47741;PMS5003;33504;52.066;6.096;2023-09-18T10:27:33;4;3;
47741;PMS5003;33504;52.066;6.096;2023-09-18T10:30:02;3;3;
47741;PMS5003;33504;52.066;6.096;2023-09-18T10:32:30;4;4;
47741;PMS5003;33504;52.066;6.096;2023-09-18T10:34:58;3;3;
47741;PMS5003;33504;52.066;6.096;2023-09-18T10:37:25;4;2;
47741;PMS5003;33504;52.066;6.096;2023-09-18T10:39:56;4;4;
47741;PMS5003;33504;52.066;6.096;2023-09-18T10:42:25;4;3;
47741;PMS5003;33504;52.066;6.096;2023-09-18T10:44:54;3;3;
47741;PMS5003;33504;52.066;6.096;2023-09-18T10:47:21;2;2;
47741;PMS5003;33504;52.066;6.096;2023-09-18T10:49:49;4;4;
47741;PMS5003;33504;52.066;6.096;2023-09-18T10:52:16;4;4;
47741;PMS5003;33504;52.066;6.096;2023-09-18T10:54:44;5;5;
47741;PMS5003;33504;52.066;6.096;2023-09-18T10:57:11;7;7;
47741;PMS5003;33504;52.066;6.096;2023-09-18T10:59:43;8;6;
47741;PMS5003;33504;52.066;6.096;2023-09-18T11:02:10;7;7;
47741;PMS5003;33504;52.066;6.096;2023-09-18T11:04:41;7;7;
47741;PMS5003;33504;52.066;6.096;2023-09-18T11:07:09;6;6;
47741;PMS5003;33504;52.066;6.096;2023-09-18T11:09:47;7;7;
47741;PMS5003;33504;52.066;6.096;2023-09-18T11:12:14;7;7;
47741;PMS5003;33504;52.066;6.096;2023-09-18T11:14:44;12;11;
47741;PMS5003;33504;52.066;6.096;2023-09-18T11:17:29;8;8;
47741;PMS5003;33504;52.066;6.096;2023-09-18T11:20:04;9;9;
47741;PMS5003;33504;52.066;6.096;2023-09-18T11:22:33;9;9;
47741;PMS5003;33504;52.066;6.096;2023-09-18T11:25:36;9;8;
47741;PMS5003;33504;52.066;6.096;2023-09-18T11:28:05;8;7;
47741;PMS5003;33504;52.066;6.096;2023-09-18T11:30:33;6;6;
47741;PMS5003;33504;52.066;6.096;2023-09-18T11:33:01;7;7;
47741;PMS5003;33504;52.066;6.096;2023-09-18T11:35:29;7;7;
47741;PMS5003;33504;52.066;6.096;2023-09-18T11:38:04;7;7;
47741;PMS5003;33504;52.066;6.096;2023-09-18T11:40:34;7;7;
47741;PMS5003;33504;52.066;6.096;2023-09-18T11:43:34;8;7;
47741;PMS5003;33504;52.066;6.096;2023-09-18T11:46:01;7;7;
47741;PMS5003;33504;52.066;6.096;2023-09-18T11:48:28;6;6;
47741;PMS5003;33504;52.066;6.096;2023-09-18T11:50:56;8;8;
47741;PMS5003;33504;52.066;6.096;2023-09-18T11:53:24;7;6;
47741;PMS5003;33504;52.066;6.096;2023-09-18T11:55:54;8;7;
47741;PMS5003;33504;52.066;6.096;2023-09-18T11:58:21;8;8;
47741;PMS5003;33504;52.066;6.096;2023-09-18T12:00:49;9;7;
47741;PMS5003;33504;52.066;6.096;2023-09-18T12:03:17;9;8;
47741;PMS5003;33504;52.066;6.096;2023-09-18T12:05:46;10;9;
47741;PMS5003;33504;52.066;6.096;2023-09-18T12:08:13;9;9;
47741;PMS5003;33504;52.066;6.096;2023-09-18T12:10:40;10;10;
47741;PMS5003;33504;52.066;6.096;2023-09-18T12:13:08;10;10;
47741;PMS5003;33504;52.066;6.096;2023-09-18T12:15:35;9;9;
47741;PMS5003;33504;52.066;6.096;2023-09-18T12:18:06;10;10;
47741;PMS5003;33504;52.066;6.096;2023-09-18T12:20:34;10;10;
47741;PMS5003;33504;52.066;6.096;2023-09-18T12:23:01;12;11;
47741;PMS5003;33504;52.066;6.096;2023-09-18T12:25:28;11;11;
47741;PMS5003;33504;52.066;6.096;2023-09-18T12:27:55;15;14;
47741;PMS5003;33504;52.066;6.096;2023-09-18T12:30:23;13;13;
47741;PMS5003;33504;52.066;6.096;2023-09-18T12:32:50;15;15;
47741;PMS5003;33504;52.066;6.096;2023-09-18T12:35:18;13;13;
47741;PMS5003;33504;52.066;6.096;2023-09-18T12:37:46;10;9;
47741;PMS5003;33504;52.066;6.096;2023-09-18T12:40:21;12;12;
47741;PMS5003;33504;52.066;6.096;2023-09-18T12:42:49;11;11;
47741;PMS5003;33504;52.066;6.096;2023-09-18T12:45:17;9;9;
47741;PMS5003;33504;52.066;6.096;2023-09-18T12:47:44;11;10;
47741;PMS5003;33504;52.066;6.096;2023-09-18T12:50:12;10;10;
47741;PMS5003;33504;52.066;6.096;2023-09-18T12:52:39;11;11;
47741;PMS5003;33504;52.066;6.096;2023-09-18T12:55:07;10;10;
47741;PMS5003;33504;52.066;6.096;2023-09-18T12:57:35;10;10;
47741;PMS5003;33504;52.066;6.096;2023-09-18T13:00:09;10;10;
47741;PMS5003;33504;52.066;6.096;2023-09-18T13:02:37;10;10;
47741;PMS5003;33504;52.066;6.096;2023-09-18T13:05:05;11;10;
47741;PMS5003;33504;52.066;6.096;2023-09-18T13:07:38;9;9;
47741;PMS5003;33504;52.066;6.096;2023-09-18T13:10:10;9;9;
47741;PMS5003;33504;52.066;6.096;2023-09-18T13:12:40;8;7;
47741;PMS5003;33504;52.066;6.096;2023-09-18T13:15:08;10;9;
47741;PMS5003;33504;52.066;6.096;2023-09-18T13:17:37;10;9;
47741;PMS5003;33504;52.066;6.096;2023-09-18T13:20:09;8;8;
47741;PMS5003;33504;52.066;6.096;2023-09-18T13:22:38;9;9;
47741;PMS5003;33504;52.066;6.096;2023-09-18T13:25:06;8;7;
47741;PMS5003;33504;52.066;6.096;2023-09-18T13:27:34;7;7;
47741;PMS5003;33504;52.066;6.096;2023-09-18T13:30:02;8;8;
47741;PMS5003;33504;52.066;6.096;2023-09-18T13:32:30;10;10;
47741;PMS5003;33504;52.066;6.096;2023-09-18T13:34:57;8;8;
47741;PMS5003;33504;52.066;6.096;2023-09-18T13:37:24;8;7;
47741;PMS5003;33504;52.066;6.096;2023-09-18T13:39:51;7;7;
47741;PMS5003;33504;52.066;6.096;2023-09-18T13:42:19;7;7;
47741;PMS5003;33504;52.066;6.096;2023-09-18T13:44:46;9;8;
47741;PMS5003;33504;52.066;6.096;2023-09-18T13:47:13;10;10;
47741;PMS5003;33504;52.066;6.096;2023-09-18T13:49:40;9;9;
47741;PMS5003;33504;52.066;6.096;2023-09-18T13:52:08;8;8;
47741;PMS5003;33504;52.066;6.096;2023-09-18T13:54:34;13;13;
47741;PMS5003;33504;52.066;6.096;2023-09-18T13:57:01;8;8;
47741;PMS5003;33504;52.066;6.096;2023-09-18T13:59:28;10;8;
47741;PMS5003;33504;52.066;6.096;2023-09-18T14:01:55;7;7;
47741;PMS5003;33504;52.066;6.096;2023-09-18T14:04:23;10;10;
47741;PMS5003;33504;52.066;6.096;2023-09-18T14:06:50;9;8;
47741;PMS5003;33504;52.066;6.096;2023-09-18T14:09:17;8;7;
47741;PMS5003;33504;52.066;6.096;2023-09-18T14:11:44;7;6;
47741;PMS5003;33504;52.066;6.096;2023-09-18T14:14:11;12;10;
47741;PMS5003;33504;52.066;6.096;2023-09-18T14:16:39;5;5;
47741;PMS5003;33504;52.066;6.096;2023-09-18T14:19:06;6;6;
47741;PMS5003;33504;52.066;6.096;2023-09-18T14:21:33;6;6;
47741;PMS5003;33504;52.066;6.096;2023-09-18T14:24:01;6;6;
47741;PMS5003;33504;52.066;6.096;2023-09-18T14:26:28;5;5;
47741;PMS5003;33504;52.066;6.096;2023-09-18T14:28:55;5;5;
47741;PMS5003;33504;52.066;6.096;2023-09-18T14:31:22;5;5;
47741;PMS5003;33504;52.066;6.096;2023-09-18T14:33:50;5;5;
47741;PMS5003;33504;52.066;6.096;2023-09-18T14:36:17;4;4;
47741;PMS5003;33504;52.066;6.096;2023-09-18T14:38:44;5;5;
47741;PMS5003;33504;52.066;6.096;2023-09-18T14:41:12;4;4;
47741;PMS5003;33504;52.066;6.096;2023-09-18T14:43:39;5;5;
47741;PMS5003;33504;52.066;6.096;2023-09-18T14:46:06;5;5;
47741;PMS5003;33504;52.066;6.096;2023-09-18T14:48:34;5;4;
47741;PMS5003;33504;52.066;6.096;2023-09-18T14:51:01;6;6;
47741;PMS5003;33504;52.066;6.096;2023-09-18T14:53:28;7;6;
47741;PMS5003;33504;52.066;6.096;2023-09-18T14:55:55;6;6;
47741;PMS5003;33504;52.066;6.096;2023-09-18T14:58:23;7;6;
47741;PMS5003;33504;52.066;6.096;2023-09-18T15:00:50;7;6;
47741;PMS5003;33504;52.066;6.096;2023-09-18T15:03:18;5;5;
47741;PMS5003;33504;52.066;6.096;2023-09-18T15:05:46;5;5;
47741;PMS5003;33504;52.066;6.096;2023-09-18T15:08:13;6;6;
47741;PMS5003;33504;52.066;6.096;2023-09-18T15:10:40;6;6;
47741;PMS5003;33504;52.066;6.096;2023-09-18T15:13:08;7;5;
47741;PMS5003;33504;52.066;6.096;2023-09-18T15:15:35;5;5;
47741;PMS5003;33504;52.066;6.096;2023-09-18T15:18:02;6;6;
47741;PMS5003;33504;52.066;6.096;2023-09-18T15:20:29;7;7;
47741;PMS5003;33504;52.066;6.096;2023-09-18T15:22:57;6;5;
47741;PMS5003;33504;52.066;6.096;2023-09-18T15:25:24;5;5;
47741;PMS5003;33504;52.066;6.096;2023-09-18T15:27:51;8;6;
47741;PMS5003;33504;52.066;6.096;2023-09-18T15:30:19;5;5;
47741;PMS5003;33504;52.066;6.096;2023-09-18T15:32:47;4;4;
47741;PMS5003;33504;52.066;6.096;2023-09-18T15:35:15;4;4;
47741;PMS5003;33504;52.066;6.096;2023-09-18T15:37:42;7;6;
47741;PMS5003;33504;52.066;6.096;2023-09-18T15:40:10;5;5;
47741;PMS5003;33504;52.066;6.096;2023-09-18T15:42:38;7;6;
47741;PMS5003;33504;52.066;6.096;2023-09-18T15:45:06;5;5;
47741;PMS5003;33504;52.066;6.096;2023-09-18T15:47:34;4;4;
47741;PMS5003;33504;52.066;6.096;2023-09-18T15:50:02;3;3;
47741;PMS5003;33504;52.066;6.096;2023-09-18T15:52:29;2;2;
47741;PMS5003;33504;52.066;6.096;2023-09-18T15:54:56;3;2;
47741;PMS5003;33504;52.066;6.096;2023-09-18T15:57:24;2;1;
47741;PMS5003;33504;52.066;6.096;2023-09-18T15:59:51;19;19;
47741;PMS5003;33504;52.066;6.096;2023-09-18T16:02:18;50;50;
47741;PMS5003;33504;52.066;6.096;2023-09-18T16:04:45;5;5;
47741;PMS5003;33504;52.066;6.096;2023-09-18T16:07:13;1;1;
47741;PMS5003;33504;52.066;6.096;2023-09-18T16:09:40;2;1;
47741;PMS5003;33504;52.066;6.096;2023-09-18T16:12:07;4;4;
47741;PMS5003;33504;52.066;6.096;2023-09-18T16:14:35;16;15;
47741;PMS5003;33504;52.066;6.096;2023-09-18T16:17:02;1;1;
47741;PMS5003;33504;52.066;6.096;2023-09-18T16:19:29;1;1;
47741;PMS5003;33504;52.066;6.096;2023-09-18T16:21:57;1;1;
47741;PMS5003;33504;52.066;6.096;2023-09-18T16:24:24;3;3;
47741;PMS5003;33504;52.066;6.096;2023-09-18T16:26:52;4;4;
47741;PMS5003;33504;52.066;6.096;2023-09-18T16:29:21;2;2;
47741;PMS5003;33504;52.066;6.096;2023-09-18T16:31:50;3;3;
47741;PMS5003;33504;52.066;6.096;2023-09-18T16:34:18;9;9;
47741;PMS5003;33504;52.066;6.096;2023-09-18T16:36:45;10;10;